createdAt,value
2022-09-06T00:00:50.359Z,1.20
2022-09-06T00:01:50.373Z,1.30
2022-09-06T00:02:50.417Z,1.30
2022-09-06T00:03:50.451Z,1.40
2022-09-06T00:04:50.408Z,1.30
2022-09-06T00:05:50.419Z,1.30
2022-09-06T00:06:50.433Z,1.30
2022-09-06T00:07:50.444Z,1.50
2022-09-06T00:08:50.456Z,1.40
2022-09-06T00:09:50.466Z,1.40
2022-09-06T00:10:50.479Z,1.30
2022-09-06T00:11:50.492Z,1.30
2022-09-06T00:12:50.504Z,1.20
2022-09-06T00:13:50.515Z,1.20
2022-09-06T00:14:50.530Z,1.50
2022-09-06T00:15:50.565Z,1.40
2022-09-06T00:16:50.552Z,1.20
2022-09-06T00:17:50.565Z,1.30
2022-09-06T00:18:50.576Z,1.20
2022-09-06T00:19:50.586Z,1.50
2022-09-06T00:20:50.601Z,1.30
2022-09-06T00:21:50.611Z,1.40
2022-09-06T00:22:50.623Z,1.30
2022-09-06T00:23:50.635Z,1.50
2022-09-06T00:24:50.649Z,1.20
2022-09-06T00:25:50.660Z,1.40
2022-09-06T00:26:50.671Z,1.30
2022-09-06T00:27:50.682Z,1.20
2022-09-06T00:28:50.696Z,1.10
2022-09-06T00:29:50.709Z,1.40
2022-09-06T00:30:50.801Z,1.30
2022-09-06T00:31:50.730Z,1.30
2022-09-06T00:32:50.744Z,1.40
2022-09-06T00:33:50.758Z,1.30
2022-09-06T00:34:50.767Z,1.60
2022-09-06T00:35:50.780Z,1.40
2022-09-06T00:36:50.790Z,1.40
2022-09-06T00:37:50.806Z,1.50
2022-09-06T00:38:50.820Z,1.30
2022-09-06T00:39:50.954Z,1.30
2022-09-06T00:40:50.840Z,1.40
2022-09-06T00:41:50.848Z,1.40
2022-09-06T00:42:50.865Z,1.30
2022-09-06T00:43:50.875Z,1.30
2022-09-06T00:44:50.886Z,1.20
2022-09-06T00:45:50.968Z,1.40
2022-09-06T00:46:50.910Z,1.50
2022-09-06T00:47:50.923Z,1.30
2022-09-06T00:48:50.932Z,1.30
2022-09-06T00:49:50.946Z,1.40
2022-09-06T00:50:50.958Z,1.30
2022-09-06T00:51:50.971Z,1.40
2022-09-06T00:52:50.982Z,1.20
2022-09-06T00:53:50.993Z,1.30
2022-09-06T00:54:51.005Z,1.30
2022-09-06T00:55:51.018Z,1.40
2022-09-06T00:56:51.030Z,1.30
2022-09-06T00:57:51.039Z,1.40
2022-09-06T00:58:51.053Z,1.30
2022-09-06T00:59:51.067Z,1.50
2022-09-06T01:00:51.082Z,1.30
2022-09-06T01:01:51.165Z,1.40
2022-09-06T01:02:51.167Z,1.10
2022-09-06T01:03:51.114Z,1.40
2022-09-06T01:04:51.132Z,1.40
2022-09-06T01:05:54.449Z,1.30
2022-09-06T01:06:51.148Z,1.50
2022-09-06T01:07:51.159Z,1.20
2022-09-06T01:08:51.170Z,1.50
2022-09-06T01:09:51.184Z,1.30
2022-09-06T01:10:51.194Z,1.40
2022-09-06T01:11:51.208Z,1.40
2022-09-06T01:12:51.219Z,1.30
2022-09-06T01:13:51.233Z,1.60
2022-09-06T01:14:51.243Z,1.60
2022-09-06T01:15:51.308Z,1.30
2022-09-06T01:16:51.266Z,1.50
2022-09-06T01:17:51.278Z,1.20
2022-09-06T01:18:51.289Z,1.50
2022-09-06T01:19:51.303Z,1.20
2022-09-06T01:20:51.314Z,1.20
2022-09-06T01:21:51.325Z,1.40
2022-09-06T01:22:51.338Z,1.30
2022-09-06T01:23:51.350Z,1.50
2022-09-06T01:24:51.362Z,1.30
2022-09-06T01:25:51.374Z,1.30
2022-09-06T01:26:51.389Z,1.20
2022-09-06T01:27:51.397Z,1.20
2022-09-06T01:28:51.409Z,1.60
2022-09-06T01:29:51.420Z,1.40
2022-09-06T01:30:51.460Z,1.40
2022-09-06T01:31:51.447Z,1.30
2022-09-06T01:32:51.458Z,1.20
2022-09-06T01:33:51.469Z,1.30
2022-09-06T01:34:51.481Z,1.40
2022-09-06T01:35:51.491Z,1.10
2022-09-06T01:37:08.875Z,1.10
2022-09-06T01:37:51.516Z,1.40
2022-09-06T01:38:51.528Z,1.40
2022-09-06T01:39:51.590Z,1.30
2022-09-06T01:40:51.552Z,1.40
2022-09-06T01:41:51.564Z,1.20
2022-09-06T01:42:51.577Z,1.20
2022-09-06T01:43:51.586Z,1.20
2022-09-06T01:44:51.601Z,1.20
2022-09-06T01:45:51.661Z,1.20
2022-09-06T01:46:51.625Z,1.20
2022-09-06T01:47:51.636Z,1.40
2022-09-06T01:48:51.647Z,1.30
2022-09-06T01:49:51.660Z,1.20
2022-09-06T01:50:51.670Z,1.50
2022-09-06T01:51:51.682Z,1.20
2022-09-06T01:52:51.697Z,1.20
2022-09-06T01:53:51.706Z,1.30
2022-09-06T01:54:51.720Z,1.20
2022-09-06T01:55:51.730Z,1.30
2022-09-06T01:56:51.743Z,1.20
2022-09-06T01:57:51.756Z,1.10
2022-09-06T01:58:51.768Z,1.70
2022-09-06T01:59:51.777Z,1.40
2022-09-06T02:00:51.790Z,1.40
2022-09-06T02:01:51.890Z,1.40
2022-09-06T02:02:51.928Z,1.40
2022-09-06T02:03:51.828Z,1.40
2022-09-06T02:04:51.838Z,1.40
2022-09-06T02:05:51.853Z,1.20
2022-09-06T02:06:51.865Z,1.40
2022-09-06T02:07:51.873Z,1.20
2022-09-06T02:08:51.886Z,1.20
2022-09-06T02:09:51.898Z,1.20
2022-09-06T02:10:51.909Z,1.60
2022-09-06T02:11:51.931Z,1.20
2022-09-06T02:12:51.935Z,1.20
2022-09-06T02:13:51.945Z,1.30
2022-09-06T02:14:51.957Z,1.40
2022-09-06T02:15:51.970Z,1.40
2022-09-06T02:16:52.020Z,1.40
2022-09-06T02:17:51.992Z,1.40
2022-09-06T02:18:52.003Z,1.30
2022-09-06T02:19:52.017Z,1.50
2022-09-06T02:20:52.030Z,1.30
2022-09-06T02:21:52.041Z,1.50
2022-09-06T02:22:52.051Z,1.40
2022-09-06T02:23:52.064Z,1.20
2022-09-06T02:25:06.824Z,1.30
2022-09-06T02:26:06.837Z,1.20
2022-09-06T02:27:06.849Z,1.60
2022-09-06T02:28:06.859Z,1.30
2022-09-06T02:29:06.872Z,1.50
2022-09-06T02:30:06.882Z,1.30
2022-09-06T02:31:06.972Z,1.30
2022-09-06T02:32:06.929Z,1.30
2022-09-06T02:33:06.922Z,1.50
2022-09-06T02:34:06.930Z,1.40
2022-09-06T02:35:06.942Z,1.50
2022-09-06T02:36:06.955Z,1.30
2022-09-06T02:37:06.965Z,1.20
2022-09-06T02:38:06.979Z,1.20
2022-09-06T02:39:06.988Z,1.30
2022-09-06T02:40:07.059Z,1.60
2022-09-06T02:41:07.014Z,1.40
2022-09-06T02:42:07.026Z,1.40
2022-09-06T02:43:07.037Z,1.30
2022-09-06T02:44:07.050Z,1.20
2022-09-06T02:45:07.059Z,1.30
2022-09-06T02:46:07.216Z,1.30
2022-09-06T02:47:07.086Z,1.30
2022-09-06T02:48:07.097Z,1.40
2022-09-06T02:49:07.107Z,1.50
2022-09-06T02:50:07.146Z,1.40
2022-09-06T02:51:07.133Z,1.40
2022-09-06T02:52:07.142Z,1.50
2022-09-06T02:53:07.155Z,1.20
2022-09-06T02:54:07.188Z,1.40
2022-09-06T02:55:07.183Z,1.50
2022-09-06T02:56:07.192Z,1.50
2022-09-06T02:57:07.201Z,1.30
2022-09-06T02:58:07.215Z,1.30
2022-09-06T02:59:07.226Z,1.40
2022-09-06T03:00:07.242Z,1.40
2022-09-06T03:01:07.307Z,1.40
2022-09-06T03:02:07.320Z,1.40
2022-09-06T03:03:07.273Z,1.50
2022-09-06T03:04:07.290Z,1.40
2022-09-06T03:05:07.297Z,1.30
2022-09-06T03:06:07.311Z,1.30
2022-09-06T03:07:07.322Z,1.40
2022-09-06T03:08:07.332Z,1.30
2022-09-06T03:09:07.345Z,1.40
2022-09-06T03:10:07.358Z,1.30
2022-09-06T03:11:07.367Z,1.20
2022-09-06T03:12:07.380Z,1.40
2022-09-06T03:13:07.393Z,1.30
2022-09-06T03:14:07.404Z,1.50
2022-09-06T03:15:07.415Z,1.20
2022-09-06T03:16:07.430Z,1.50
2022-09-06T03:17:07.446Z,1.30
2022-09-06T03:18:07.455Z,1.30
2022-09-06T03:19:07.463Z,1.40
2022-09-06T03:20:07.477Z,1.40
2022-09-06T03:21:07.488Z,1.20
2022-09-06T03:22:07.503Z,1.20
2022-09-06T03:23:07.510Z,1.40
2022-09-06T03:24:07.524Z,1.20
2022-09-06T03:25:07.536Z,1.40
2022-09-06T03:26:07.546Z,1.20
2022-09-06T03:27:07.557Z,1.20
2022-09-06T03:28:07.569Z,1.40
2022-09-06T03:29:07.582Z,1.20
2022-09-06T03:30:07.594Z,1.30
2022-09-06T03:31:07.670Z,1.10
2022-09-06T03:32:07.618Z,1.40
2022-09-06T03:33:07.633Z,1.30
2022-09-06T03:34:10.948Z,1.30
2022-09-06T03:35:07.653Z,1.30
2022-09-06T03:36:07.664Z,1.50
2022-09-06T03:37:07.679Z,1.50
2022-09-06T03:38:07.689Z,1.40
2022-09-06T03:39:07.702Z,1.50
2022-09-06T03:40:07.764Z,1.40
2022-09-06T03:41:07.724Z,1.30
2022-09-06T03:42:07.735Z,1.40
2022-09-06T03:43:07.747Z,1.20
2022-09-06T03:44:07.759Z,1.30
2022-09-06T03:45:07.771Z,1.40
2022-09-06T03:46:07.845Z,1.30
2022-09-06T03:47:07.794Z,1.50
2022-09-06T03:48:07.806Z,1.20
2022-09-06T03:49:07.818Z,1.30
2022-09-06T03:50:07.830Z,1.30
2022-09-06T03:51:07.885Z,1.30
2022-09-06T03:52:07.855Z,1.20
2022-09-06T03:53:07.866Z,1.30
2022-09-06T03:54:07.880Z,1.40
2022-09-06T03:55:07.889Z,1.50
2022-09-06T03:56:07.936Z,1.50
2022-09-06T03:57:07.914Z,1.20
2022-09-06T03:58:07.928Z,1.30
2022-09-06T03:59:07.936Z,1.30
2022-09-06T04:00:07.949Z,1.20
2022-09-06T04:01:08.058Z,1.40
2022-09-06T04:02:08.006Z,1.30
2022-09-06T04:03:07.983Z,1.30
2022-09-06T04:04:07.995Z,1.40
2022-09-06T04:05:08.013Z,1.40
2022-09-06T04:06:08.018Z,1.40
2022-09-06T04:07:08.030Z,1.20
2022-09-06T04:08:08.043Z,1.00
2022-09-06T04:09:08.053Z,1.40
2022-09-06T04:10:08.066Z,1.40
2022-09-06T04:11:08.078Z,1.40
2022-09-06T04:12:08.088Z,1.20
2022-09-06T04:13:08.107Z,1.40
2022-09-06T04:14:08.113Z,1.30
2022-09-06T04:15:08.127Z,1.40
2022-09-06T04:16:08.218Z,1.40
2022-09-06T04:17:08.148Z,1.40
2022-09-06T04:18:09.355Z,1.30
2022-09-06T04:19:08.172Z,1.50
2022-09-06T04:20:08.184Z,1.50
2022-09-06T04:21:08.196Z,1.30
2022-09-06T04:22:08.210Z,1.30
2022-09-06T04:23:08.219Z,1.20
2022-09-06T04:24:08.233Z,1.40
2022-09-06T04:25:08.245Z,1.20
2022-09-06T04:26:08.254Z,1.40
2022-09-06T04:27:08.267Z,1.30
2022-09-06T04:28:08.280Z,1.50
2022-09-06T04:29:08.295Z,1.30
2022-09-06T04:30:08.333Z,1.60
2022-09-06T04:31:08.315Z,1.10
2022-09-06T04:32:08.402Z,0.90
2022-09-06T04:33:08.337Z,1.50
2022-09-06T04:34:08.351Z,1.50
2022-09-06T04:35:08.362Z,1.20
2022-09-06T04:36:08.372Z,1.20
2022-09-06T04:37:08.387Z,1.40
2022-09-06T04:38:08.396Z,1.10
2022-09-06T04:39:08.408Z,1.20
2022-09-06T04:40:08.520Z,1.20
2022-09-06T04:41:08.433Z,1.30
2022-09-06T04:42:08.443Z,1.30
2022-09-06T04:43:08.456Z,1.50
2022-09-06T04:44:08.468Z,1.40
2022-09-06T04:45:08.482Z,1.40
2022-09-06T04:46:08.605Z,1.20
2022-09-06T04:47:09.650Z,1.40
2022-09-06T04:48:08.515Z,1.30
2022-09-06T04:49:08.525Z,1.10
2022-09-06T04:50:08.540Z,1.20
2022-09-06T04:51:08.550Z,1.30
2022-09-06T04:52:08.563Z,1.40
2022-09-06T04:53:08.572Z,1.20
2022-09-06T04:54:08.609Z,1.40
2022-09-06T04:55:08.595Z,1.20
2022-09-06T04:56:08.609Z,1.20
2022-09-06T04:57:08.620Z,1.20
2022-09-06T04:58:08.632Z,1.40
2022-09-06T04:59:08.644Z,1.20
2022-09-06T05:00:08.657Z,1.30
2022-09-06T05:01:08.742Z,1.30
2022-09-06T05:02:08.775Z,1.10
2022-09-06T05:03:08.690Z,1.20
2022-09-06T05:04:08.703Z,1.30
2022-09-06T05:05:08.716Z,1.40
2022-09-06T05:06:08.732Z,1.20
2022-09-06T05:07:08.755Z,1.20
2022-09-06T05:08:08.750Z,1.20
2022-09-06T05:09:08.765Z,1.40
2022-09-06T05:10:08.775Z,1.30
2022-09-06T05:11:08.785Z,1.30
2022-09-06T05:12:08.799Z,1.30
2022-09-06T05:13:08.809Z,1.40
2022-09-06T05:14:08.822Z,1.20
2022-09-06T05:15:08.832Z,1.10
2022-09-06T05:16:08.933Z,1.20
2022-09-06T05:17:08.856Z,1.20
2022-09-06T05:18:12.858Z,1.20
2022-09-06T05:19:08.878Z,1.20
2022-09-06T05:20:08.892Z,1.30
2022-09-06T05:21:08.907Z,1.30
2022-09-06T05:22:08.915Z,1.20
2022-09-06T05:23:08.925Z,1.40
2022-09-06T05:24:08.940Z,1.30
2022-09-06T05:25:08.950Z,1.00
2022-09-06T05:26:08.962Z,1.10
2022-09-06T05:27:08.975Z,1.10
2022-09-06T05:28:08.986Z,1.10
2022-09-06T05:29:09.009Z,1.10
2022-09-06T05:30:09.009Z,1.40
2022-09-06T05:31:09.024Z,1.40
2022-09-06T05:32:09.124Z,1.30
2022-09-06T05:33:09.046Z,1.20
2022-09-06T05:34:09.058Z,1.10
2022-09-06T05:35:09.071Z,1.00
2022-09-06T05:36:09.087Z,1.20
2022-09-06T05:37:09.133Z,1.10
2022-09-06T05:38:09.104Z,1.30
2022-09-06T05:39:09.114Z,1.20
2022-09-06T05:40:09.215Z,0.90
2022-09-06T05:41:09.140Z,1.20
2022-09-06T05:42:09.150Z,1.30
2022-09-06T05:43:09.162Z,1.10
2022-09-06T05:44:09.178Z,1.10
2022-09-06T05:45:09.186Z,1.10
2022-09-06T05:46:09.251Z,1.00
2022-09-06T05:47:09.209Z,1.10
2022-09-06T05:48:09.221Z,1.10
2022-09-06T05:49:09.233Z,1.10
2022-09-06T05:50:09.246Z,1.10
2022-09-06T05:51:09.258Z,1.20
2022-09-06T05:52:09.269Z,1.40
2022-09-06T05:53:09.282Z,1.10
2022-09-06T05:54:09.293Z,1.20
2022-09-06T05:55:09.303Z,1.10
2022-09-06T05:56:09.316Z,1.30
2022-09-06T05:57:09.328Z,1.20
2022-09-06T05:58:09.339Z,1.20
2022-09-06T05:59:09.352Z,1.20
2022-09-06T06:00:09.363Z,1.10
2022-09-06T06:01:09.411Z,1.00
2022-09-06T06:02:09.443Z,1.00
2022-09-06T06:03:09.397Z,1.10
2022-09-06T06:04:09.409Z,1.00
2022-09-06T06:05:09.421Z,1.30
2022-09-06T06:06:09.438Z,1.10
2022-09-06T06:07:09.444Z,1.10
2022-09-06T06:08:09.456Z,1.10
2022-09-06T06:09:09.467Z,1.20
2022-09-06T06:10:09.481Z,1.10
2022-09-06T06:11:09.493Z,1.20
2022-09-06T06:12:09.505Z,1.10
2022-09-06T06:13:09.514Z,1.00
2022-09-06T06:14:09.528Z,1.20
2022-09-06T06:15:09.538Z,1.00
2022-09-06T06:16:09.689Z,1.00
2022-09-06T06:17:09.566Z,1.10
2022-09-06T06:18:09.579Z,0.90
2022-09-06T06:19:09.586Z,1.10
2022-09-06T06:20:09.598Z,1.00
2022-09-06T06:21:09.610Z,1.20
2022-09-06T06:22:09.625Z,1.00
2022-09-06T06:23:09.632Z,1.10
2022-09-06T06:24:09.645Z,1.10
2022-09-06T06:25:12.022Z,1.10
2022-09-06T06:26:09.670Z,1.10
2022-09-06T06:27:09.678Z,1.20
2022-09-06T06:28:09.693Z,0.90
2022-09-06T06:29:09.747Z,1.10
2022-09-06T06:30:09.715Z,1.20
2022-09-06T06:31:09.728Z,0.90
2022-09-06T06:32:09.810Z,0.90
2022-09-06T06:33:09.749Z,1.00
2022-09-06T06:34:09.765Z,1.10
2022-09-06T06:35:09.780Z,1.10
2022-09-06T06:36:09.786Z,1.00
2022-09-06T06:37:09.802Z,1.10
2022-09-06T06:38:09.814Z,1.10
2022-09-06T06:39:09.824Z,1.20
2022-09-06T06:40:09.928Z,1.00
2022-09-06T06:41:09.844Z,1.10
2022-09-06T06:42:09.856Z,1.10
2022-09-06T06:43:09.868Z,1.30
2022-09-06T06:44:09.880Z,1.10
2022-09-06T06:45:09.890Z,1.10
2022-09-06T06:46:09.953Z,1.10
2022-09-06T06:47:09.913Z,1.20
2022-09-06T06:48:09.926Z,1.20
2022-09-06T06:49:09.937Z,1.30
2022-09-06T06:50:09.952Z,1.20
2022-09-06T06:51:09.961Z,1.20
2022-09-06T06:52:09.971Z,1.20
2022-09-06T06:53:09.983Z,1.30
2022-09-06T06:54:09.997Z,1.10
2022-09-06T06:55:10.009Z,1.10
2022-09-06T06:56:10.022Z,1.30
2022-09-06T06:57:10.031Z,1.20
2022-09-06T06:58:10.043Z,1.10
2022-09-06T06:59:10.058Z,1.20
2022-09-06T07:00:10.066Z,1.20
2022-09-06T07:01:10.287Z,1.10
2022-09-06T07:02:10.246Z,1.40
2022-09-06T07:03:10.101Z,1.20
2022-09-06T07:04:10.114Z,1.40
2022-09-06T07:08:10.161Z,1.20
2022-09-06T07:09:10.172Z,1.30
2022-09-06T07:11:10.199Z,1.20
2022-09-06T07:12:10.208Z,1.40
2022-09-06T07:13:10.219Z,1.20
2022-09-06T07:14:10.240Z,1.40
2022-09-06T07:15:10.244Z,1.50
2022-09-06T07:16:10.328Z,1.20
2022-09-06T07:17:10.266Z,1.30
2022-09-06T07:18:10.278Z,1.30
2022-09-06T07:21:39.833Z,1.40
2022-09-06T07:22:11.857Z,1.60
2022-09-06T07:24:10.726Z,1.60
2022-09-06T07:25:10.359Z,1.20
2022-09-06T07:26:10.371Z,1.40
2022-09-06T07:28:10.393Z,1.60
2022-09-06T07:29:10.407Z,1.60
2022-09-06T07:30:10.418Z,1.70
2022-09-06T07:33:10.453Z,1.90
2022-09-06T07:34:10.469Z,1.70
2022-09-06T07:35:10.475Z,1.80
2022-09-06T07:36:10.490Z,1.90
2022-09-06T07:37:10.501Z,1.70
2022-09-06T07:38:10.513Z,1.80
2022-09-06T07:39:10.522Z,1.70
2022-09-06T07:40:10.635Z,2.00
2022-09-06T07:41:10.549Z,1.80
2022-09-06T07:42:10.560Z,1.70
2022-09-06T07:43:10.570Z,1.80
2022-09-06T07:44:10.590Z,1.80
2022-09-06T07:45:10.594Z,1.80
2022-09-06T07:46:10.605Z,1.90
2022-09-06T07:48:10.629Z,1.90
2022-09-06T07:49:10.640Z,1.80
2022-09-06T07:51:10.664Z,1.70
2022-09-06T07:53:14.871Z,1.70
2022-09-06T07:54:29.806Z,1.80
2022-09-06T07:55:10.711Z,1.70
2022-09-06T07:56:10.778Z,2.10
2022-09-06T07:57:10.734Z,2.00
2022-09-06T07:58:10.747Z,1.90
2022-09-06T07:59:10.759Z,1.80
2022-09-06T08:00:10.770Z,1.70
2022-09-06T08:01:10.828Z,1.90
2022-09-06T08:02:10.856Z,1.80
2022-09-06T08:03:10.805Z,1.60
2022-09-06T08:04:10.816Z,1.80
2022-09-06T08:06:11.132Z,1.70
2022-09-06T08:07:40.747Z,1.60
2022-09-06T08:09:10.879Z,1.90
2022-09-06T08:10:10.886Z,2.00
2022-09-06T08:11:10.898Z,1.80
2022-09-06T08:12:10.909Z,1.80
2022-09-06T08:13:10.920Z,2.00
2022-09-06T08:14:10.935Z,2.00
2022-09-06T08:15:10.946Z,1.80
2022-09-06T08:16:10.999Z,1.90
2022-09-06T08:17:11.070Z,1.70
2022-09-06T08:18:10.979Z,1.80
2022-09-06T08:19:10.991Z,1.70
2022-09-06T08:20:11.004Z,1.90
2022-09-06T08:21:12.640Z,1.70
2022-09-06T08:22:11.029Z,1.80
2022-09-06T08:23:11.039Z,1.60
2022-09-06T08:24:11.052Z,1.90
2022-09-06T08:25:11.064Z,1.60
2022-09-06T08:26:11.074Z,1.70
2022-09-06T08:27:11.086Z,1.80
2022-09-06T08:28:11.099Z,1.80
2022-09-06T08:29:11.111Z,1.70
2022-09-06T08:30:11.120Z,1.70
2022-09-06T08:31:11.185Z,1.70
2022-09-06T08:32:11.146Z,1.60
2022-09-06T08:33:11.158Z,1.50
2022-09-06T08:34:11.168Z,1.60
2022-09-06T08:35:11.180Z,1.70
2022-09-06T08:36:11.194Z,1.80
2022-09-06T08:37:11.205Z,1.70
2022-09-06T08:38:11.216Z,1.70
2022-09-06T08:39:11.227Z,1.60
2022-09-06T08:40:11.294Z,1.50
2022-09-06T08:41:11.252Z,1.70
2022-09-06T08:42:11.261Z,1.90
2022-09-06T08:43:11.273Z,1.60
2022-09-06T08:45:11.299Z,1.70
2022-09-06T08:46:11.354Z,1.70
2022-09-06T08:47:11.318Z,1.60
2022-09-06T08:48:11.332Z,1.60
2022-09-06T08:49:11.343Z,1.70
2022-09-06T08:50:11.356Z,1.70
2022-09-06T08:51:11.366Z,1.70
2022-09-06T08:52:11.379Z,1.60
2022-09-06T08:53:18.701Z,1.70
2022-09-06T08:54:11.402Z,2.00
2022-09-06T08:55:11.414Z,1.70
2022-09-06T08:56:11.426Z,1.60
2022-09-06T08:57:11.439Z,1.70
2022-09-06T08:58:11.455Z,1.80
2022-09-06T08:59:11.466Z,1.90
2022-09-06T09:00:11.475Z,1.60
2022-09-06T09:01:11.616Z,1.60
2022-09-06T09:02:11.571Z,1.80
2022-09-06T09:03:16.448Z,1.70
2022-09-06T09:04:11.518Z,1.80
2022-09-06T09:05:11.532Z,1.80
2022-09-06T09:06:11.548Z,1.80
2022-09-06T09:07:11.553Z,1.80
2022-09-06T09:08:11.566Z,1.80
2022-09-06T09:09:11.578Z,1.80
2022-09-06T09:10:11.589Z,1.80
2022-09-06T09:11:11.600Z,1.80
2022-09-06T09:12:11.612Z,1.60
2022-09-06T09:13:11.626Z,1.50
2022-09-06T09:14:11.638Z,1.90
2022-09-06T09:15:11.646Z,1.80
2022-09-06T09:16:11.709Z,1.70
2022-09-06T09:17:11.675Z,2.00
2022-09-06T09:18:11.683Z,1.50
2022-09-06T09:19:11.695Z,1.90
2022-09-06T09:20:11.706Z,1.80
2022-09-06T09:21:11.718Z,1.80
2022-09-06T09:22:11.732Z,1.60
2022-09-06T09:23:11.740Z,1.80
2022-09-06T09:24:11.751Z,1.70
2022-09-06T09:25:11.766Z,1.50
2022-09-06T09:26:11.782Z,1.90
2022-09-06T09:27:11.788Z,1.80
2022-09-06T09:28:11.799Z,1.70
2022-09-06T09:29:11.811Z,1.70
2022-09-06T09:31:11.888Z,1.70
2022-09-06T09:32:11.862Z,1.50
2022-09-06T09:33:11.858Z,1.60
2022-09-06T09:34:11.869Z,1.70
2022-09-06T09:35:11.880Z,1.60
2022-09-06T09:36:11.892Z,1.50
2022-09-06T09:38:12.380Z,1.70
2022-09-06T09:39:11.929Z,1.50
2022-09-06T09:40:11.998Z,1.60
2022-09-06T09:41:11.952Z,1.80
2022-09-06T09:42:11.964Z,1.80
2022-09-06T09:43:11.975Z,1.50
2022-09-06T09:44:11.986Z,1.90
2022-09-06T09:45:11.999Z,1.80
2022-09-06T09:46:12.036Z,1.70
2022-09-06T09:47:12.023Z,1.70
2022-09-06T09:48:12.032Z,1.50
2022-09-06T09:49:12.046Z,1.50
2022-09-06T09:50:12.259Z,1.70
2022-09-06T09:51:17.140Z,1.90
2022-09-06T09:52:12.085Z,1.90
2022-09-06T09:53:12.092Z,1.70
2022-09-06T09:54:12.103Z,1.80
2022-09-06T09:55:12.113Z,1.70
2022-09-06T09:56:12.127Z,1.60
2022-09-06T09:57:12.333Z,1.80
2022-09-06T09:58:12.150Z,1.80
2022-09-06T09:59:12.161Z,1.70
2022-09-06T10:00:12.175Z,1.90
2022-09-06T10:01:12.329Z,1.50
2022-09-06T10:02:12.198Z,1.80
2022-09-06T10:03:12.239Z,1.70
2022-09-06T10:05:12.232Z,1.70
2022-09-06T10:07:12.256Z,1.70
2022-09-06T10:08:12.271Z,1.70
2022-09-06T10:09:15.027Z,1.60
2022-09-06T10:10:12.292Z,1.80
2022-09-06T10:11:12.304Z,1.70
2022-09-06T10:12:12.314Z,1.70
2022-09-06T10:13:12.325Z,1.60
2022-09-06T10:14:12.338Z,1.80
2022-09-06T10:15:12.347Z,1.80
2022-09-06T10:16:12.423Z,1.90
2022-09-06T10:17:12.375Z,1.70
2022-09-06T10:18:12.385Z,1.70
2022-09-06T10:19:12.396Z,1.60
2022-09-06T10:20:12.561Z,1.80
2022-09-06T10:21:12.419Z,1.90
2022-09-06T10:22:12.432Z,1.80
2022-09-06T10:23:12.440Z,1.80
2022-09-06T10:24:28.146Z,1.90
2022-09-06T10:25:12.466Z,1.90
2022-09-06T10:26:12.478Z,1.90
2022-09-06T10:27:12.488Z,1.60
2022-09-06T10:28:12.503Z,1.80
2022-09-06T10:29:12.514Z,1.90
2022-09-06T10:30:12.569Z,2.00
2022-09-06T10:31:12.801Z,1.90
2022-09-06T10:32:12.548Z,1.80
2022-09-06T10:33:12.560Z,1.70
2022-09-06T10:34:12.572Z,1.90
2022-09-06T10:35:12.585Z,2.00
2022-09-06T10:36:12.594Z,2.00
2022-09-06T10:37:12.606Z,2.10
2022-09-06T10:38:12.616Z,1.90
2022-09-06T10:39:12.628Z,2.00
2022-09-06T10:40:12.765Z,2.10
2022-09-06T10:41:12.655Z,1.90
2022-09-06T10:42:12.663Z,2.00
2022-09-06T10:43:12.674Z,1.80
2022-09-06T10:44:12.687Z,1.80
2022-09-06T10:45:12.698Z,1.90
2022-09-06T10:46:12.761Z,2.10
2022-09-06T10:47:12.727Z,2.10
2022-09-06T10:48:14.801Z,2.00
2022-09-06T10:49:12.750Z,2.10
2022-09-06T10:50:12.757Z,2.00
2022-09-06T10:51:12.769Z,2.00
2022-09-06T10:52:12.781Z,1.90
2022-09-06T10:53:12.793Z,2.00
2022-09-06T10:54:12.803Z,1.90
2022-09-06T10:55:12.816Z,1.90
2022-09-06T10:56:12.860Z,2.10
2022-09-06T11:00:12.873Z,2.10
2022-09-06T11:01:12.916Z,1.90
2022-09-06T11:02:13.026Z,2.00
2022-09-06T11:04:13.316Z,1.90
2022-09-06T11:06:12.944Z,1.80
2022-09-06T11:07:12.956Z,1.80
2022-09-06T11:09:12.982Z,1.90
2022-09-06T11:10:12.993Z,2.00
2022-09-06T11:11:13.002Z,1.90
2022-09-06T11:12:13.018Z,2.20
2022-09-06T11:13:13.026Z,1.90
2022-09-06T11:14:13.061Z,2.10
2022-09-06T11:15:13.048Z,2.00
2022-09-06T11:16:13.156Z,2.10
2022-09-06T11:17:13.076Z,2.10
2022-09-06T11:18:13.086Z,2.20
2022-09-06T11:19:13.096Z,2.00
2022-09-06T11:20:13.128Z,1.90
2022-09-06T11:21:17.452Z,2.00
2022-09-06T11:22:13.132Z,2.10
2022-09-06T11:23:13.142Z,2.20
2022-09-06T11:24:13.155Z,1.80
2022-09-06T11:25:13.165Z,1.90
2022-09-06T11:26:13.182Z,2.00
2022-09-06T11:27:13.190Z,2.00
2022-09-06T11:28:13.201Z,2.10
2022-09-06T11:29:13.213Z,2.00
2022-09-06T11:30:13.225Z,1.90
2022-09-06T11:33:13.260Z,2.00
2022-09-06T11:34:13.275Z,2.20
2022-09-06T11:35:13.282Z,1.90
2022-09-06T11:36:13.293Z,2.00
2022-09-06T11:37:13.306Z,1.80
2022-09-06T11:38:13.317Z,2.00
2022-09-06T11:39:13.331Z,2.00
2022-09-06T11:40:29.174Z,1.70
2022-09-06T11:41:13.354Z,1.80
2022-09-06T11:42:13.366Z,1.90
2022-09-06T11:43:13.378Z,1.80
2022-09-06T11:44:13.387Z,1.90
2022-09-06T11:45:13.400Z,2.00
2022-09-06T11:46:15.458Z,1.80
2022-09-06T11:47:13.422Z,2.00
2022-09-06T11:48:13.439Z,2.00
2022-09-06T11:49:13.446Z,2.00
2022-09-06T11:50:13.457Z,1.80
2022-09-06T11:51:13.474Z,1.90
2022-09-06T11:52:13.483Z,2.00
2022-09-06T11:53:13.499Z,1.80
2022-09-06T11:54:13.504Z,1.90
2022-09-06T11:55:13.517Z,1.90
2022-09-06T11:56:13.528Z,1.90
2022-09-06T11:57:13.541Z,1.70
2022-09-06T11:58:13.560Z,1.80
2022-09-06T11:59:13.563Z,1.90
2022-09-06T12:00:13.577Z,1.90
2022-09-06T12:01:13.587Z,2.10
2022-09-06T12:02:13.600Z,1.80
2022-09-06T12:04:13.620Z,2.00
2022-09-06T12:05:13.633Z,1.90
2022-09-06T12:06:13.645Z,1.90
2022-09-06T12:07:13.655Z,1.70
2022-09-06T12:08:13.670Z,1.90
2022-09-06T12:09:13.680Z,2.00
2022-09-06T12:10:13.823Z,1.80
2022-09-06T12:11:13.705Z,1.80
2022-09-06T12:12:17.006Z,2.10
2022-09-06T12:13:13.727Z,1.80
2022-09-06T12:14:13.739Z,2.10
2022-09-06T12:15:13.750Z,2.00
2022-09-06T12:16:13.825Z,1.70
2022-09-06T12:17:13.774Z,1.70
2022-09-06T12:18:13.786Z,2.00
2022-09-06T12:19:13.798Z,1.70
2022-09-06T12:20:13.811Z,1.90
2022-09-06T12:21:13.823Z,1.90
2022-09-06T12:22:13.833Z,1.90
2022-09-06T12:23:13.844Z,1.80
2022-09-06T12:24:13.856Z,2.00
2022-09-06T12:25:13.868Z,2.00
2022-09-06T12:26:13.879Z,2.10
2022-09-06T12:27:13.890Z,1.90
2022-09-06T12:28:13.905Z,1.90
2022-09-06T12:29:13.915Z,1.90
2022-09-06T12:30:13.932Z,2.00
2022-09-06T12:31:18.305Z,2.00
2022-09-06T12:32:13.951Z,1.70
2022-09-06T12:33:13.964Z,1.90
2022-09-06T12:34:13.975Z,1.90
2022-09-06T12:36:13.996Z,2.00
2022-09-06T12:37:14.008Z,2.10
2022-09-06T12:38:14.022Z,1.90
2022-09-06T12:39:14.046Z,2.00
2022-09-06T12:40:14.069Z,2.10
2022-09-06T12:41:14.056Z,2.20
2022-09-06T12:42:14.077Z,2.00
2022-09-06T12:43:14.079Z,2.00
2022-09-06T12:44:14.096Z,2.10
2022-09-06T12:45:14.103Z,2.10
2022-09-06T12:46:14.232Z,1.90
2022-09-06T12:47:14.125Z,2.20
2022-09-06T12:48:14.136Z,2.10
2022-09-06T12:49:14.150Z,1.90
2022-09-06T12:50:14.161Z,2.20
2022-09-06T12:51:14.172Z,2.10
2022-09-06T12:52:14.185Z,1.90
2022-09-06T12:53:15.920Z,2.00
2022-09-06T12:54:14.209Z,2.50
2022-09-06T12:55:14.220Z,2.40
2022-09-06T12:56:14.231Z,2.30
2022-09-06T12:57:14.242Z,2.20
2022-09-06T12:58:14.255Z,2.00
2022-09-06T12:59:14.308Z,2.10
2022-09-06T13:00:14.279Z,1.70
2022-09-06T13:01:14.366Z,2.20
2022-09-06T13:02:14.437Z,1.90
2022-09-06T13:03:14.327Z,2.50
2022-09-06T13:04:14.325Z,2.10
2022-09-06T13:05:14.337Z,2.30
2022-09-06T13:06:14.348Z,2.10
2022-09-06T13:07:14.361Z,2.30
2022-09-06T13:08:14.378Z,2.10
2022-09-06T13:09:14.384Z,2.50
2022-09-06T13:10:14.395Z,2.40
2022-09-06T13:11:14.413Z,2.30
2022-09-06T13:12:14.420Z,2.30
2022-09-06T13:13:14.433Z,2.50
2022-09-06T13:14:14.777Z,2.20
2022-09-06T13:15:14.461Z,2.30
2022-09-06T13:16:14.525Z,2.20
2022-09-06T13:17:14.478Z,2.30
2022-09-06T13:18:14.490Z,2.30
2022-09-06T13:19:14.502Z,2.40
2022-09-06T13:20:14.513Z,2.00
2022-09-06T13:21:14.525Z,2.50
2022-09-06T13:22:14.539Z,2.60
2022-09-06T13:23:14.547Z,2.20
2022-09-06T13:24:14.560Z,2.40
2022-09-06T13:25:16.676Z,2.00
2022-09-06T13:26:14.597Z,2.30
2022-09-06T13:27:14.597Z,2.30
2022-09-06T13:28:14.608Z,2.20
2022-09-06T13:29:15.226Z,2.40
2022-09-06T13:30:14.632Z,2.10
2022-09-06T13:31:14.681Z,2.30
2022-09-06T13:32:14.655Z,2.20
2022-09-06T13:33:14.667Z,2.10
2022-09-06T13:34:14.680Z,2.20
2022-09-06T13:35:14.689Z,2.60
2022-09-06T13:36:14.703Z,2.70
2022-09-06T13:37:14.714Z,2.60
2022-09-06T13:38:14.726Z,2.40
2022-09-06T13:39:14.738Z,2.30
2022-09-06T13:40:14.824Z,2.70
2022-09-06T13:41:16.475Z,2.30
2022-09-06T13:42:14.774Z,2.60
2022-09-06T13:43:14.783Z,2.40
2022-09-06T13:44:14.799Z,2.30
2022-09-06T13:45:14.808Z,2.80
2022-09-06T13:46:14.903Z,2.50
2022-09-06T13:47:14.834Z,2.60
2022-09-06T13:48:28.847Z,2.40
2022-09-06T13:49:14.857Z,2.60